createdAt,value
2018-03-27T00:00:18.304Z,51.99
2018-03-27T00:01:18.548Z,51.89
2018-03-27T00:02:18.532Z,52.08
2018-03-27T00:03:18.516Z,52.06
2018-03-27T00:04:18.240Z,52.46
2018-03-27T00:05:18.581Z,52.65
2018-03-27T00:06:18.473Z,52.84
2018-03-27T00:07:18.198Z,52.75
2018-03-27T00:08:18.177Z,53.78
2018-03-27T00:09:18.427Z,53.78
2018-03-27T00:10:18.147Z,53.88
2018-03-27T00:11:18.391Z,54.55
2018-03-27T00:12:18.381Z,54.45
2018-03-27T00:13:18.357Z,54.74
2018-03-27T00:14:18.341Z,54.55
2018-03-27T00:15:18.327Z,55.4
2018-03-27T00:16:18.052Z,54.93
2018-03-27T00:17:18.036Z,55.11
2018-03-27T00:18:18.282Z,55.49
2018-03-27T00:19:18.265Z,55.49
2018-03-27T00:20:18.246Z,55.96
2018-03-27T00:21:18.230Z,55.96
2018-03-27T00:22:18.215Z,56.44
2018-03-27T00:23:18.201Z,55.87
2018-03-27T00:24:17.922Z,55.96
2018-03-27T00:25:18.167Z,55.96
2018-03-27T00:26:17.897Z,55.87
2018-03-27T00:27:18.136Z,56.44
2018-03-27T00:28:18.119Z,56.82
2018-03-27T00:29:17.846Z,56.72
2018-03-27T00:30:18.087Z,57.01
2018-03-27T00:31:18.073Z,57.39
2018-03-27T00:32:18.063Z,57.1
2018-03-27T00:33:18.039Z,57.2
2018-03-27T00:34:18.025Z,57.29
2018-03-27T00:35:18.008Z,57.2
2018-03-27T00:36:17.734Z,56.63
2018-03-27T00:37:17.979Z,55.96
2018-03-27T00:38:17.962Z,55.75
2018-03-27T00:39:17.944Z,55.4
2018-03-27T00:40:17.927Z,55.58
2018-03-27T00:41:17.917Z,55.4
2018-03-27T00:42:17.638Z,55.11
2018-03-27T00:43:17.883Z,55.11
2018-03-27T00:44:17.865Z,55.4
2018-03-27T00:45:17.592Z,54.61
2018-03-27T00:46:17.578Z,53.88
2018-03-27T00:47:17.828Z,52.91
2018-03-27T00:48:17.802Z,52.72
2018-03-27T00:49:17.530Z,52.18
2018-03-27T00:50:17.775Z,51.01
2018-03-27T00:51:17.758Z,50.63
2018-03-27T00:52:17.481Z,50.26
2018-03-27T00:53:17.734Z,49.69
2018-03-27T00:54:17.705Z,48.84
2018-03-27T00:55:17.688Z,48.65
2018-03-27T00:56:17.676Z,48.46
2018-03-27T00:57:17.659Z,47.32
2018-03-27T00:58:17.645Z,48.27
2018-03-27T00:59:17.369Z,48.55
2018-03-27T01:00:17.609Z,48.84
2018-03-27T01:01:17.336Z,50.07
2018-03-27T01:02:17.580Z,50.54
2018-03-27T01:03:17.306Z,50.16
2018-03-27T01:04:17.545Z,49.79
2018-03-27T01:05:17.528Z,49.12
2018-03-27T01:06:17.257Z,48.55
2018-03-27T01:07:17.499Z,48.27
2018-03-27T01:08:17.482Z,47.61
2018-03-27T01:09:17.206Z,47.42
2018-03-27T01:10:17.454Z,47.7
2018-03-27T01:11:17.178Z,47.13
2018-03-27T01:12:17.158Z,46.85
2018-03-27T01:13:17.399Z,46.47
2018-03-27T01:14:17.393Z,46.28
2018-03-27T01:15:17.107Z,46.19
2018-03-27T01:16:17.355Z,46
2018-03-27T01:17:17.335Z,45.72
2018-03-27T01:18:17.317Z,45.62
2018-03-27T01:19:17.303Z,45.15
2018-03-27T01:20:17.028Z,44.96
2018-03-27T01:21:17.265Z,44.77
2018-03-27T01:22:17.256Z,44.77
2018-03-27T01:23:17.233Z,44.58
2018-03-27T01:24:17.225Z,44.37
2018-03-27T01:25:17.209Z,43.91
2018-03-27T01:26:16.924Z,43.44
2018-03-27T01:27:17.165Z,43.35
2018-03-27T01:28:16.891Z,42.97
2018-03-27T01:29:17.133Z,42.88
2018-03-27T01:30:17.116Z,42.85
2018-03-27T01:31:17.105Z,42.5
2018-03-27T01:32:16.826Z,42.21
2018-03-27T01:33:16.810Z,42.4
2018-03-27T01:34:16.790Z,42.4
2018-03-27T01:35:17.031Z,42.47
2018-03-27T01:36:17.067Z,41.93
2018-03-27T01:37:17.002Z,41.55
2018-03-27T01:38:16.990Z,41.08
2018-03-27T01:39:16.967Z,41.08
2018-03-27T01:40:16.691Z,41.08
2018-03-27T01:41:16.931Z,41.93
2018-03-27T01:42:16.657Z,42.3
2018-03-27T01:43:16.902Z,42.5
2018-03-27T01:44:16.623Z,43.07
2018-03-27T01:45:16.866Z,43.07
2018-03-27T01:46:16.849Z,42.97
2018-03-27T01:47:16.837Z,42.88
2018-03-27T01:48:16.816Z,42.69
2018-03-27T01:49:16.838Z,42.57
2018-03-27T01:50:16.782Z,42.29
2018-03-27T01:51:16.766Z,41.82
2018-03-27T01:52:16.749Z,41.53
2018-03-27T01:53:16.476Z,41.15
2018-03-27T01:54:16.717Z,41.06
2018-03-27T01:55:16.698Z,41.25
2018-03-27T01:56:16.684Z,41.53
2018-03-27T01:57:16.666Z,42.02
2018-03-27T01:58:16.648Z,41.91
2018-03-27T01:59:16.373Z,41.53
2018-03-27T02:00:16.613Z,41.53
2018-03-27T02:01:16.598Z,40.58
2018-03-27T02:02:16.584Z,40.3
2018-03-27T02:03:16.307Z,40.11
2018-03-27T02:04:16.552Z,40.2
2018-03-27T02:05:16.559Z,40.2
2018-03-27T02:06:16.512Z,40.39
2018-03-27T02:07:16.500Z,40.2
2018-03-27T02:08:16.487Z,40.39
2018-03-27T02:09:16.214Z,40.3
2018-03-27T02:10:16.444Z,40.58
2018-03-27T02:11:16.170Z,40.39
2018-03-27T02:12:16.156Z,41.06
2018-03-27T02:13:16.397Z,41.25
2018-03-27T02:14:16.378Z,41.91
2018-03-27T02:15:16.369Z,42.47
2018-03-27T02:16:16.352Z,42.38
2018-03-27T02:17:16.332Z,42.66
2018-03-27T02:18:16.312Z,43.04
2018-03-27T02:19:16.310Z,43.52
2018-03-27T02:20:16.279Z,44.09
2018-03-27T02:21:16.263Z,44.65
2018-03-27T02:22:16.243Z,44.74
2018-03-27T02:23:16.238Z,45.22
2018-03-27T02:24:15.953Z,45.03
2018-03-27T02:25:16.195Z,45.22
2018-03-27T02:26:15.917Z,45.41
2018-03-27T02:27:16.160Z,45.31
2018-03-27T02:28:15.884Z,46.55
2018-03-27T02:29:16.125Z,47.58
2018-03-27T02:30:16.119Z,47.68
2018-03-27T02:31:15.848Z,48.53
2018-03-27T02:32:16.075Z,48.44
2018-03-27T02:33:16.059Z,47.87
2018-03-27T02:34:16.048Z,47.77
2018-03-27T02:35:16.035Z,47.49
2018-03-27T02:36:16.012Z,47.49
2018-03-27T02:37:15.738Z,47.3
2018-03-27T02:38:15.982Z,47.49
2018-03-27T02:39:15.966Z,47.68
2018-03-27T02:40:15.686Z,47.58
2018-03-27T02:41:15.669Z,47.87
2018-03-27T02:42:15.915Z,48.25
2018-03-27T02:43:15.904Z,48.25
2018-03-27T02:44:15.875Z,48.34
2018-03-27T02:45:15.867Z,48.25
2018-03-27T02:46:15.844Z,48.44
2018-03-27T02:47:15.825Z,48.72
2018-03-27T02:48:15.552Z,48.44
2018-03-27T02:49:15.795Z,48.63
2018-03-27T02:50:15.775Z,48.53
2018-03-27T02:51:15.767Z,48.91
2018-03-27T02:52:15.746Z,48.72
2018-03-27T02:53:15.725Z,48.82
2018-03-27T02:54:15.710Z,49.19
2018-03-27T02:55:15.692Z,49.57
2018-03-27T02:56:15.680Z,49.66
2018-03-27T02:57:15.659Z,50.04
2018-03-27T02:58:15.644Z,49.95
2018-03-27T02:59:15.626Z,49.85
2018-03-27T03:00:15.617Z,49.76
2018-03-27T03:01:15.592Z,49.01
2018-03-27T03:02:15.318Z,48.91
2018-03-27T03:03:15.562Z,48.44
2018-03-27T03:04:15.543Z,47.87
2018-03-27T03:05:15.521Z,47.39
2018-03-27T03:06:15.512Z,46.64
2018-03-27T03:07:15.499Z,46.17
2018-03-27T03:08:15.475Z,45.03
2018-03-27T03:09:15.456Z,44.46
2018-03-27T03:10:15.441Z,43.61
2018-03-27T03:11:15.433Z,43.23
2018-03-27T03:12:15.146Z,42.76
2018-03-27T03:13:15.392Z,42.85
2018-03-27T03:14:15.373Z,42.47
2018-03-27T03:15:15.354Z,42.57
2018-03-27T03:16:15.336Z,42.95
2018-03-27T03:17:15.319Z,43.33
2018-03-27T03:18:15.303Z,43.04
2018-03-27T03:19:15.290Z,43.23
2018-03-27T03:20:15.014Z,43.52
2018-03-27T03:21:15.253Z,43.71
2018-03-27T03:22:15.238Z,44.27
2018-03-27T03:23:15.218Z,44.65
2018-03-27T03:24:15.201Z,44.74
2018-03-27T03:25:15.184Z,44.93
2018-03-27T03:26:15.170Z,44.93
2018-03-27T03:27:15.154Z,45.22
2018-03-27T03:28:15.189Z,45.31
2018-03-27T03:29:15.123Z,44.84
2018-03-27T03:30:15.105Z,44.65
2018-03-27T03:31:15.087Z,44.84
2018-03-27T03:32:14.809Z,44.84
2018-03-27T03:33:15.050Z,44.46
2018-03-27T03:34:15.033Z,44.93
2018-03-27T03:35:14.776Z,44.56
2018-03-27T03:36:15.000Z,44.46
2018-03-27T03:37:14.981Z,43.99
2018-03-27T03:38:14.707Z,44.27
2018-03-27T03:39:14.691Z,44.74
2018-03-27T03:40:14.930Z,44.56
2018-03-27T03:41:14.656Z,44.74
2018-03-27T03:42:14.895Z,44.09
2018-03-27T03:43:14.883Z,43.61
2018-03-27T03:44:14.603Z,44.18
2018-03-27T03:45:14.852Z,43.8
2018-03-27T03:46:14.828Z,43.8
2018-03-27T03:47:14.809Z,43.42
2018-03-27T03:48:14.535Z,42.95
2018-03-27T03:49:14.774Z,42.95
2018-03-27T03:50:14.502Z,42.76
2018-03-27T03:51:14.739Z,42.66
2018-03-27T03:52:14.722Z,42.29
2018-03-27T03:53:14.714Z,42.57
2018-03-27T03:54:14.688Z,42.57
2018-03-27T03:55:14.413Z,43.14
2018-03-27T03:56:14.656Z,43.04
2018-03-27T03:57:14.636Z,43.8
2018-03-27T03:58:14.623Z,44.18
2018-03-27T03:59:14.609Z,44.65
2018-03-27T04:00:14.584Z,45.41
2018-03-27T04:01:14.575Z,45.79
2018-03-27T04:02:14.548Z,46.17
2018-03-27T04:03:14.534Z,46.17
2018-03-27T04:04:14.514Z,45.86
2018-03-27T04:05:14.497Z,45.79
2018-03-27T04:06:14.222Z,45.98
2018-03-27T04:07:14.204Z,46.17
2018-03-27T04:08:14.446Z,46.36
2018-03-27T04:09:14.428Z,46.36
2018-03-27T04:10:14.416Z,46.55
2018-03-27T04:11:14.401Z,46.55
2018-03-27T04:12:14.376Z,46.55
2018-03-27T04:13:14.360Z,46.36
2018-03-27T04:14:14.341Z,46.55
2018-03-27T04:15:14.324Z,46.55
2018-03-27T04:16:14.308Z,46.64
2018-03-27T04:17:14.290Z,47.2
2018-03-27T04:18:14.277Z,47.49
2018-03-27T04:19:14.262Z,47.49
2018-03-27T04:20:14.240Z,48.44
2018-03-27T04:21:14.235Z,48.63
2018-03-27T04:22:14.205Z,49.01
2018-03-27T04:23:14.193Z,49.66
2018-03-27T04:24:14.173Z,50.23
2018-03-27T04:25:14.156Z,50.42
2018-03-27T04:26:14.167Z,50.8
2018-03-27T04:27:14.123Z,51.09
2018-03-27T04:28:14.104Z,51.56
2018-03-27T04:29:14.097Z,52.03
2018-03-27T04:30:14.067Z,51.75
2018-03-27T04:31:14.062Z,52.5
2018-03-27T04:32:13.780Z,52.88
2018-03-27T04:33:14.016Z,53.64
2018-03-27T04:34:14.002Z,53.83
2018-03-27T04:35:13.726Z,54.3
2018-03-27T04:36:13.707Z,55.63
2018-03-27T04:37:13.691Z,56.01
2018-03-27T04:38:13.930Z,55.91
2018-03-27T04:39:13.914Z,56.57
2018-03-27T04:40:13.902Z,57.14
2018-03-27T04:41:13.891Z,57.8
2018-03-27T04:42:13.865Z,57.42
2018-03-27T04:43:13.589Z,57.61
2018-03-27T04:44:13.628Z,57.71
2018-03-27T04:45:13.825Z,57.42
2018-03-27T04:46:13.796Z,57.33
2018-03-27T04:47:13.520Z,57.61
2018-03-27T04:48:13.504Z,57.71
2018-03-27T04:49:13.745Z,57.42
2018-03-27T04:50:13.729Z,58.47
2018-03-27T04:51:13.709Z,58.56
2018-03-27T04:52:13.698Z,58.28
2018-03-27T04:53:13.418Z,57.99
2018-03-27T04:54:13.667Z,57.99
2018-03-27T04:55:13.644Z,57.9
2018-03-27T04:56:13.622Z,58.18
2018-03-27T04:57:13.608Z,59.03
2018-03-27T04:58:13.590Z,58.56
2018-03-27T04:59:13.572Z,58.65
2018-03-27T05:00:13.554Z,59.88
2018-03-27T05:01:13.282Z,60.17
2018-03-27T05:02:13.521Z,60.83
2018-03-27T05:03:13.504Z,61.68
2018-03-27T05:04:13.489Z,61.58
2018-03-27T05:05:13.213Z,61.87
2018-03-27T05:06:13.456Z,61.87
2018-03-27T05:07:13.177Z,62.44
2018-03-27T05:08:13.420Z,62.91
2018-03-27T05:09:13.143Z,63.29
2018-03-27T05:10:13.386Z,63.95
2018-03-27T05:11:13.375Z,64.61
2018-03-27T05:12:13.093Z,64.42
2018-03-27T05:13:13.076Z,63.76
2018-03-27T05:14:13.058Z,64.14
2018-03-27T05:15:13.297Z,63.57
2018-03-27T05:16:13.022Z,63.57
2018-03-27T05:17:13.272Z,63.39
2018-03-27T05:18:13.248Z,63.29
2018-03-27T05:19:13.235Z,62.82
2018-03-27T05:20:13.224Z,62.72
2018-03-27T05:21:13.000Z,62.82
2018-03-27T05:22:13.176Z,62.91
2018-03-27T05:23:12.903Z,63.39
2018-03-27T05:24:13.141Z,63.57
2018-03-27T05:25:13.143Z,63.85
2018-03-27T05:26:13.111Z,63.85
2018-03-27T05:27:13.092Z,64.04
2018-03-27T05:28:12.817Z,64.04
2018-03-27T05:29:13.066Z,63.85
2018-03-27T05:30:12.782Z,64.04
2018-03-27T05:31:12.765Z,63.85
2018-03-27T05:32:13.006Z,64.61
2018-03-27T05:33:12.989Z,65.09
2018-03-27T05:34:12.716Z,65.37
2018-03-27T05:35:12.695Z,65.47
2018-03-27T05:36:12.680Z,64.61
2018-03-27T05:37:12.922Z,63.57
2018-03-27T05:38:12.904Z,63.39
2018-03-27T05:39:12.630Z,62.91
2018-03-27T05:40:12.614Z,63.2
2018-03-27T05:41:12.597Z,63.57
2018-03-27T05:42:12.842Z,63.29
2018-03-27T05:43:12.560Z,62.91
2018-03-27T05:44:12.805Z,62.72
2018-03-27T05:45:12.785Z,62.06
2018-03-27T05:46:12.771Z,62.91
2018-03-27T05:47:12.493Z,63.01
2018-03-27T05:48:12.478Z,63.67
2018-03-27T05:49:12.718Z,64.99
2018-03-27T05:50:12.700Z,66.03
2018-03-27T05:51:12.715Z,66.41
2018-03-27T05:52:12.670Z,66.69
2018-03-27T05:53:12.650Z,66.03
2018-03-27T05:54:12.638Z,65.47
2018-03-27T05:55:12.617Z,64.8
2018-03-27T05:56:12.602Z,65.09
2018-03-27T05:57:12.580Z,65.56
2018-03-27T05:58:12.566Z,66.41
2018-03-27T05:59:12.552Z,67.64
2018-03-27T06:00:12.274Z,69.34
2018-03-27T06:01:12.513Z,70.86
2018-03-27T06:02:12.506Z,72.09
2018-03-27T06:03:12.223Z,73.32
2018-03-27T06:04:12.213Z,74.17
2018-03-27T06:05:12.460Z,74.07
2018-03-27T06:06:12.173Z,74.87
2018-03-27T06:07:12.414Z,75.12
2018-03-27T06:08:12.398Z,74.45
2018-03-27T06:09:12.124Z,74.64
2018-03-27T06:10:12.365Z,75.15
2018-03-27T06:11:12.384Z,75.43
2018-03-27T06:12:12.074Z,76.76
2018-03-27T06:13:12.320Z,77.23
2018-03-27T06:14:12.299Z,77.89
2018-03-27T06:15:12.288Z,77.89
2018-03-27T06:16:12.265Z,78.56
2018-03-27T06:17:12.252Z,79.13
2018-03-27T06:18:11.973Z,79.79
2018-03-27T06:19:12.268Z,80.17
2018-03-27T06:20:11.941Z,79.88
2018-03-27T06:21:12.181Z,80.26
2018-03-27T06:22:12.166Z,80.17
2018-03-27T06:23:12.149Z,81.12
2018-03-27T06:24:12.141Z,81.87
2018-03-27T06:25:12.118Z,82.34
2018-03-27T06:26:12.100Z,83.1
2018-03-27T06:27:12.088Z,83.86
2018-03-27T06:28:11.812Z,84.05
2018-03-27T06:29:12.121Z,85.66
2018-03-27T06:30:11.776Z,85.94
2018-03-27T06:31:12.019Z,85.19
2018-03-27T06:32:11.747Z,85.94
2018-03-27T06:33:11.988Z,87.36
2018-03-27T06:34:11.972Z,87.27
2018-03-27T06:35:11.955Z,87.65
2018-03-27T06:36:11.681Z,88.31
2018-03-27T06:37:11.922Z,88.21
2018-03-27T06:38:11.647Z,88.12
2018-03-27T06:39:11.893Z,87.17
2018-03-27T06:40:11.617Z,86.89
2018-03-27T06:41:11.869Z,87.17
2018-03-27T06:42:12.123Z,87.36
2018-03-27T06:43:11.829Z,87.27
2018-03-27T06:44:11.809Z,87.27
2018-03-27T06:45:11.795Z,86.89
2018-03-27T06:46:11.777Z,86.6
2018-03-27T06:47:11.765Z,87.17
2018-03-27T06:48:11.485Z,87.65
2018-03-27T06:49:11.728Z,87.55
2018-03-27T06:50:11.453Z,87.17
2018-03-27T06:51:11.436Z,86.7
2018-03-27T06:52:11.419Z,86.51
2018-03-27T06:53:11.663Z,87.17
2018-03-27T06:54:11.647Z,88.12
2018-03-27T06:55:11.630Z,89.68
2018-03-27T06:56:11.619Z,90.72
2018-03-27T06:57:11.341Z,93.08
2018-03-27T06:58:11.327Z,93.84
2018-03-27T06:59:11.683Z,94.04
2018-03-27T07:00:11.292Z,94.13
2018-03-27T07:01:11.274Z,96.59
2018-03-27T07:02:11.531Z,97.16
2018-03-27T07:03:11.507Z,96.88
2018-03-27T07:04:11.501Z,95.83
2018-03-27T07:05:11.498Z,94.7
2018-03-27T07:06:11.486Z,94.93
2018-03-27T07:07:11.205Z,94.37
2018-03-27T07:08:11.172Z,93.13
2018-03-27T07:09:11.415Z,93.89
2018-03-27T07:10:11.156Z,93.13
2018-03-27T07:11:11.135Z,92.94
2018-03-27T07:12:11.101Z,92.85
2018-03-27T07:13:11.109Z,93.13
2018-03-27T07:14:11.371Z,92.99
2018-03-27T07:15:11.386Z,93.27
2018-03-27T07:16:11.340Z,94.51
2018-03-27T07:17:11.292Z,95.26
2018-03-27T07:18:11.290Z,95.93
2018-03-27T07:19:10.999Z,96.5
2018-03-27T07:20:11.005Z,97.82
2018-03-27T07:21:10.959Z,99.2
2018-03-27T07:22:11.202Z,99.43
2018-03-27T07:23:11.182Z,99.99
2018-03-27T07:24:10.908Z,99.86
2018-03-27T07:25:11.157Z,99.99
2018-03-27T07:26:10.876Z,99.67
2018-03-27T07:27:11.125Z,99.99
2018-03-27T07:28:10.845Z,99.99
2018-03-27T07:29:10.836Z,99.99
2018-03-27T07:30:10.821Z,99.99
2018-03-27T07:31:10.800Z,99.99
2018-03-27T07:32:10.784Z,99.99
2018-03-27T07:33:11.031Z,99.99
2018-03-27T07:34:11.020Z,99.99
2018-03-27T07:35:10.997Z,99.99
2018-03-27T07:36:10.981Z,99.99
2018-03-27T07:37:10.713Z,99.99
2018-03-27T07:38:10.955Z,99.99
2018-03-27T07:39:10.932Z,99.99
2018-03-27T07:40:10.920Z,99.99
2018-03-27T07:41:10.908Z,99.99
2018-03-27T07:42:10.891Z,99.99
2018-03-27T07:43:10.878Z,99.99
2018-03-27T07:44:10.869Z,99.99
2018-03-27T07:45:10.845Z,99.99
2018-03-27T07:46:10.575Z,99.99
2018-03-27T07:47:10.813Z,99.99
2018-03-27T07:48:10.541Z,99.99
2018-03-27T07:49:10.524Z,99.99
2018-03-27T07:50:10.509Z,99.99
2018-03-27T07:51:10.752Z,99.99
2018-03-27T07:52:10.481Z,99.99
2018-03-27T07:53:10.723Z,99.99
2018-03-27T07:54:10.713Z,99.99
2018-03-27T07:55:10.437Z,99.99
2018-03-27T07:56:10.680Z,99.99
2018-03-27T07:57:10.408Z,99.99
2018-03-27T07:58:10.662Z,99.99
2018-03-27T07:59:10.377Z,99.99
2018-03-27T08:00:10.620Z,99.99
2018-03-27T08:01:10.604Z,99.99
2018-03-27T08:02:10.626Z,99.99
2018-03-27T08:03:10.576Z,99.99
2018-03-27T08:04:10.560Z,99.99
2018-03-27T08:05:10.287Z,99.99
2018-03-27T08:06:10.531Z,99.99
2018-03-27T08:07:10.256Z,99.99
2018-03-27T08:08:10.500Z,99.99
2018-03-27T08:09:10.491Z,99.99
2018-03-27T08:10:10.213Z,99.99
2018-03-27T08:11:10.622Z,99.99
2018-03-27T08:12:10.441Z,99.99
2018-03-27T08:13:10.428Z,99.99
2018-03-27T08:14:10.414Z,99.99
2018-03-27T08:15:10.140Z,99.99
2018-03-27T08:16:10.385Z,99.99
2018-03-27T08:17:10.373Z,99.99
2018-03-27T08:18:10.356Z,99.99
2018-03-27T08:19:10.080Z,99.99
2018-03-27T08:20:10.067Z,99.99
2018-03-27T08:21:10.052Z,99.99
2018-03-27T08:22:10.334Z,99.99
2018-03-27T08:23:10.024Z,99.99
2018-03-27T08:24:10.110Z,99.99
2018-03-27T08:25:09.994Z,99.99
2018-03-27T08:26:10.238Z,99.99
2018-03-27T08:27:10.221Z,99.99
2018-03-27T08:28:10.210Z,99.99
2018-03-27T08:29:09.936Z,99.99
2018-03-27T08:30:10.177Z,99.99
2018-03-27T08:31:09.904Z,99.99
2018-03-27T08:32:10.151Z,99.99
2018-03-27T08:33:10.134Z,99.99
2018-03-27T08:34:09.863Z,99.99
2018-03-27T08:35:10.116Z,99.99
2018-03-27T08:36:09.864Z,99.99
2018-03-27T08:37:10.078Z,99.99
2018-03-27T08:38:10.066Z,99.99
2018-03-27T08:39:10.048Z,99.99
2018-03-27T08:40:09.777Z,99.99
2018-03-27T08:41:10.023Z,99.99
2018-03-27T08:42:09.748Z,99.99
2018-03-27T08:43:09.736Z,99.99
2018-03-27T08:44:09.722Z,99.73
2018-03-27T08:45:09.969Z,99.99
2018-03-27T08:46:09.952Z,99.99
2018-03-27T08:47:09.682Z,99.99
2018-03-27T08:48:09.669Z,99.99
2018-03-27T08:49:09.913Z,98.73
2018-03-27T08:50:09.901Z,98.16
2018-03-27T08:51:09.893Z,97.22
2018-03-27T08:52:09.871Z,97.88
2018-03-27T08:53:09.861Z,95.51
2018-03-27T08:54:09.915Z,95.89
2018-03-27T08:55:09.836Z,96.36
2018-03-27T08:56:09.940Z,96.03
2018-03-27T08:57:09.552Z,98.31
2018-03-27T08:58:09.541Z,99.83
2018-03-27T08:59:09.784Z,98.69
2018-03-27T09:00:09.774Z,97.36
2018-03-27T09:01:09.759Z,96.22
2018-03-27T09:02:09.746Z,95.84
2018-03-27T09:03:09.747Z,94.7
2018-03-27T09:04:09.725Z,92.42
2018-03-27T09:05:09.717Z,91.19
2018-03-27T09:06:09.701Z,91.75
2018-03-27T09:07:09.430Z,90.99
2018-03-27T09:08:09.416Z,91.09
2018-03-27T09:09:09.668Z,90.99
2018-03-27T09:10:09.649Z,90.8
2018-03-27T09:11:09.379Z,89.95
2018-03-27T09:12:09.625Z,90.71
2018-03-27T09:13:09.655Z,91.28
2018-03-27T09:14:09.600Z,91.19
2018-03-27T09:15:09.388Z,90.9
2018-03-27T09:16:09.574Z,91.75
2018-03-27T09:17:09.309Z,91.71
2018-03-27T09:18:09.551Z,91.8
2018-03-27T09:19:09.539Z,91.14
2018-03-27T09:20:09.527Z,91.71
2018-03-27T09:21:09.519Z,92.85
2018-03-27T09:22:09.499Z,92.8
2018-03-27T09:23:09.233Z,93.27
2018-03-27T09:24:09.477Z,93.08
2018-03-27T09:25:09.470Z,93.08
2018-03-27T09:26:09.470Z,92.99
2018-03-27T09:27:09.450Z,93.37
2018-03-27T09:28:09.429Z,93.51
2018-03-27T09:29:09.418Z,94.46
2018-03-27T09:30:09.144Z,95.22
2018-03-27T09:31:09.399Z,95.6
2018-03-27T09:32:09.383Z,95.12
2018-03-27T09:33:09.368Z,94.84
2018-03-27T09:34:09.355Z,94.46
2018-03-27T09:35:09.344Z,93.41
2018-03-27T09:36:09.078Z,93.13
2018-03-27T09:37:09.059Z,93.89
2018-03-27T09:38:09.314Z,93.99
2018-03-27T09:39:09.291Z,94.46
2018-03-27T09:40:09.280Z,93.8
2018-03-27T09:41:09.010Z,92.47
2018-03-27T09:42:09.001Z,93.32
2018-03-27T09:43:09.247Z,94.46
2018-03-27T09:44:09.245Z,95.98
2018-03-27T09:45:09.226Z,95.79
2018-03-27T09:46:09.211Z,97.78
2018-03-27T09:47:09.192Z,98.35
2018-03-27T09:48:08.923Z,97.31
2018-03-27T09:49:09.175Z,97.5
2018-03-27T09:50:09.156Z,98.35
2018-03-27T09:51:09.151Z,98.45
2018-03-27T09:52:09.131Z,98.35
2018-03-27T09:53:09.124Z,97.6
2018-03-27T09:54:08.848Z,97.02
2018-03-27T09:55:09.094Z,97.92
2018-03-27T09:56:09.080Z,98.97
2018-03-27T09:57:09.074Z,97.74
2018-03-27T09:58:09.058Z,95.94
2018-03-27T09:59:08.786Z,95.65
2018-03-27T10:00:09.031Z,95.84
2018-03-27T10:01:08.763Z,94.79
2018-03-27T10:02:09.014Z,94.46
2018-03-27T10:03:08.996Z,93.7
2018-03-27T10:04:08.729Z,91.99
2018-03-27T10:05:08.969Z,91.99
2018-03-27T10:06:08.965Z,91.42
2018-03-27T10:07:08.698Z,87.81
2018-03-27T10:08:08.677Z,85.53
2018-03-27T10:09:08.928Z,84.01
2018-03-27T10:10:08.910Z,83.91
2018-03-27T10:11:08.640Z,83.82
2018-03-27T10:12:08.885Z,84.95
2018-03-27T10:13:08.618Z,86.19
2018-03-27T10:14:08.861Z,84.77
2018-03-27T10:15:08.591Z,83.59
2018-03-27T10:16:08.583Z,83.49
2018-03-27T10:17:08.830Z,84.25
2018-03-27T10:18:08.557Z,84.06
2018-03-27T10:19:08.801Z,84.25
2018-03-27T10:20:08.790Z,84.91
2018-03-27T10:21:08.779Z,84.72
2018-03-27T10:22:08.511Z,84.63
2018-03-27T10:23:08.763Z,85.01
2018-03-27T10:24:08.486Z,87.86
2018-03-27T10:25:08.732Z,87.29
2018-03-27T10:26:08.464Z,85.68
2018-03-27T10:27:08.706Z,83.49
2018-03-27T10:28:08.694Z,83.97
2018-03-27T10:29:08.687Z,86.24
2018-03-27T10:30:08.674Z,87.29
2018-03-27T10:31:08.659Z,86.1
2018-03-27T10:32:08.658Z,85.24
2018-03-27T10:33:08.378Z,82.39
2018-03-27T10:34:08.365Z,80.4
2018-03-27T10:35:08.636Z,81.02
2018-03-27T10:36:08.602Z,84.16
2018-03-27T10:37:08.330Z,86.05
2018-03-27T10:38:08.316Z,86.15
2018-03-27T10:39:08.306Z,87.81
2018-03-27T10:40:08.560Z,85.43
2018-03-27T10:41:08.284Z,84.58
2018-03-27T10:42:08.270Z,83.34
2018-03-27T10:43:08.516Z,79.96
2018-03-27T10:44:08.248Z,78.72
2018-03-27T10:45:08.494Z,78.25
2018-03-27T10:46:08.223Z,78.72
2018-03-27T10:47:08.210Z,76.44
2018-03-27T10:48:08.460Z,75.78
2018-03-27T10:49:08.447Z,79.11
2018-03-27T10:50:08.437Z,82.05
2018-03-27T10:51:08.164Z,82.2
2018-03-27T10:52:08.154Z,83.72
2018-03-27T10:53:08.441Z,82.2
2018-03-27T10:54:08.130Z,81.63
2018-03-27T10:55:08.418Z,81.92
2018-03-27T10:56:08.365Z,84.29
2018-03-27T10:57:08.353Z,84.86
2018-03-27T10:58:08.347Z,83.72
2018-03-27T10:59:08.330Z,83.91
2018-03-27T11:00:08.061Z,84.01
2018-03-27T11:01:08.307Z,82.77
2018-03-27T11:02:08.037Z,81.44
2018-03-27T11:03:08.283Z,81.06
2018-03-27T11:04:08.272Z,81.06
2018-03-27T11:05:08.269Z,80.87
2018-03-27T11:06:07.992Z,80.3
2018-03-27T11:07:07.980Z,80.02
2018-03-27T11:08:08.229Z,80.3
2018-03-27T11:09:08.220Z,79.73
2018-03-27T11:10:07.953Z,79.63
2018-03-27T11:11:08.193Z,78.06
2018-03-27T11:12:08.185Z,77.01
2018-03-27T11:13:07.913Z,75.87
2018-03-27T11:14:08.165Z,74.6
2018-03-27T11:15:08.148Z,76.88
2018-03-27T11:16:08.138Z,77.07
2018-03-27T11:17:08.126Z,78.11
2018-03-27T11:18:07.857Z,80.3
2018-03-27T11:19:07.844Z,80.35
2018-03-27T11:20:08.101Z,80.26
2018-03-27T11:21:07.822Z,79.41
2018-03-27T11:22:07.810Z,78.64
2018-03-27T11:23:08.054Z,80.64
2018-03-27T11:24:07.787Z,84.34
2018-03-27T11:25:07.774Z,85.3
2018-03-27T11:26:08.023Z,84.53
2018-03-27T11:27:07.750Z,84.72
2018-03-27T11:28:07.998Z,82.82
2018-03-27T11:29:08.002Z,81.12
2018-03-27T11:30:07.979Z,80.26
2018-03-27T11:31:07.960Z,79.22
2018-03-27T11:32:07.953Z,79.03
2018-03-27T11:33:07.938Z,79.69
2018-03-27T11:34:07.674Z,83.15
2018-03-27T11:35:07.657Z,83.06
2018-03-27T11:36:07.901Z,77.83
2018-03-27T11:37:07.896Z,77.83
2018-03-27T11:38:07.950Z,77.49
2018-03-27T11:39:07.868Z,77.01
2018-03-27T11:40:07.858Z,76.92
2018-03-27T11:41:07.589Z,76.82
2018-03-27T11:42:07.839Z,78.44
2018-03-27T11:43:07.825Z,79.01
2018-03-27T11:44:07.815Z,77.87
2018-03-27T11:45:07.826Z,78.25
2018-03-27T11:46:07.532Z,77.87
2018-03-27T11:47:07.518Z,76.06
2018-03-27T11:48:07.765Z,75.21
2018-03-27T11:49:07.764Z,74.2
2018-03-27T11:50:07.748Z,75.34
2018-03-27T11:51:07.743Z,75.02
2018-03-27T11:52:07.725Z,75.15
2018-03-27T11:53:07.455Z,75.34
2018-03-27T11:54:07.707Z,74.48
2018-03-27T11:55:07.691Z,74.96
2018-03-27T11:56:07.422Z,75.78
2018-03-27T11:57:07.677Z,74.92
2018-03-27T11:58:07.660Z,72.16
2018-03-27T11:59:07.388Z,70.36
2018-03-27T12:00:07.636Z,69.21
2018-03-27T12:01:07.367Z,68.65
2018-03-27T12:02:07.614Z,69.41
2018-03-27T12:03:07.603Z,69.31
2018-03-27T12:04:07.595Z,68.33
2018-03-27T12:05:07.581Z,68.99
2018-03-27T12:06:07.316Z,69.85
2018-03-27T12:07:07.561Z,70.95
2018-03-27T12:08:07.563Z,74.56
2018-03-27T12:09:07.539Z,75.04
2018-03-27T12:10:07.270Z,74.94
2018-03-27T12:11:07.256Z,74.56
2018-03-27T12:12:07.503Z,74.27
2018-03-27T12:13:07.490Z,74.27
2018-03-27T12:14:07.482Z,76.75
2018-03-27T12:15:07.472Z,76.84
2018-03-27T12:16:07.456Z,75.51
2018-03-27T12:17:07.444Z,76.75
2018-03-27T12:18:07.433Z,77.7
2018-03-27T12:19:07.162Z,77.12
2018-03-27T12:20:07.151Z,79.03
2018-03-27T12:21:07.397Z,83.01
2018-03-27T12:22:07.385Z,85.11
2018-03-27T12:23:07.114Z,84.49
2018-03-27T12:24:07.107Z,85.25
2018-03-27T12:25:07.348Z,84.4
2018-03-27T12:26:07.339Z,84.11
2018-03-27T12:27:07.068Z,84.97
2018-03-27T12:28:07.319Z,86.3
2018-03-27T12:29:07.300Z,86.39
2018-03-27T12:30:07.298Z,87.34
2018-03-27T12:31:07.016Z,88.86
2018-03-27T12:32:07.264Z,89.76
2018-03-27T12:33:07.256Z,89.9
2018-03-27T12:34:07.041Z,89.33
2018-03-27T12:35:07.229Z,88.2
2018-03-27T12:36:07.219Z,89.72
2018-03-27T12:37:06.942Z,91.47
2018-03-27T12:38:06.930Z,92.8
2018-03-27T12:39:06.920Z,95.36
2018-03-27T12:40:07.165Z,95.75
2018-03-27T12:41:06.895Z,93.75
2018-03-27T12:42:07.137Z,92.71
2018-03-27T12:43:06.870Z,90.9
2018-03-27T12:44:07.118Z,89.14
2018-03-27T12:45:07.105Z,87.01
2018-03-27T12:46:06.835Z,86.82
2018-03-27T12:47:07.081Z,85.96
2018-03-27T12:48:07.067Z,86.34
2018-03-27T12:49:06.798Z,86.63
2018-03-27T12:50:06.795Z,87.48
2018-03-27T12:51:07.043Z,86.76
2018-03-27T12:52:07.018Z,86.67
2018-03-27T12:53:06.748Z,86.67
2018-03-27T12:54:06.738Z,86.38